Time;durP1;ratioP1;P1;durP2;ratioP2;P2;SDS_P1;SDS_P2;PMS_P1;PMS_P2;Temp;Humidity;BMP_temperature;BMP_pressure;BME280_temperature;BME280_humidity;BME280_pressure;Samples;Min_cycle;Max_cycle;Signal;HPM_P1;HPM_P2
2022/03/22 00:00:20;;;;;;;27.35;13.05;;;4.70;28.00;;;;;;5090337;28;20132;-77
2022/03/22 00:03:10;;;;;;;22.90;11.20;;;4.60;28.00;;;;;;5089820;28;20051;-73
2022/03/22 00:05:42;;;;;;;32.70;15.05;;;4.60;28.20;;;;;;5089362;28;20039;-72
2022/03/22 00:08:15;;;;;;;23.58;12.68;;;4.50;28.10;;;;;;5087077;28;20041;-72
2022/03/22 00:10:44;;;;;;;29.23;14.05;;;4.40;28.30;;;;;;5105532;28;20032;-78
2022/03/22 00:13:21;;;;;;;33.53;14.23;;;4.40;28.30;;;;;;5089904;28;20048;-73
2022/03/22 00:15:56;;;;;;;30.55;16.13;;;4.30;28.20;;;;;;5089019;28;20850;-77
2022/03/22 00:18:56;;;;;;;29.25;17.60;;;4.30;28.10;;;;;;5089710;28;20063;-77
2022/03/22 00:21:53;;;;;;;25.25;14.75;;;4.30;28.20;;;;;;5088970;28;20119;-72
2022/03/22 00:24:19;;;;;;;27.27;14.38;;;4.30;28.30;;;;;;5074850;28;20177;-78
2022/03/22 00:26:57;;;;;;;27.48;14.00;;;4.20;28.20;;;;;;5088720;28;20032;-73
2022/03/22 00:29:30;;;;;;;27.33;13.77;;;4.20;28.40;;;;;;5072414;28;20032;-78
2022/03/22 00:32:17;;;;;;;28.30;15.20;;;4.20;28.50;;;;;;5073005;28;20043;-78
2022/03/22 00:37:50;;;;;;;23.30;11.90;;;4.00;29.00;;;;;;5089154;28;20051;-77
2022/03/22 00:40:22;;;;;;;30.00;12.50;;;4.00;29.20;;;;;;5072538;28;20052;-73
2022/03/22 00:43:46;;;;;;;22.58;11.73;;;3.90;29.20;;;;;;5089484;28;20431;-77
2022/03/22 00:46:12;;;;;;;24.67;12.65;;;3.80;29.50;;;;;;5090167;28;20036;-78
2022/03/22 00:48:40;;;;;;;21.42;11.10;;;3.70;29.30;;;;;;5090384;28;20040;-72
2022/03/22 00:51:27;;;;;;;22.65;12.13;;;3.60;28.90;;;;;;5074001;28;20481;-77
2022/03/22 00:54:20;;;;;;;20.98;10.75;;;3.60;29.30;;;;;;5072534;28;20037;-72
2022/03/22 00:56:46;;;;;;;22.73;10.57;;;3.50;29.40;;;;;;5087383;28;20390;-73
2022/03/22 01:02:00;;;;;;;20.95;11.25;;;3.40;29.50;;;;;;5088882;28;20047;-73
2022/03/22 01:04:29;;;;;;;24.50;10.23;;;3.40;29.40;;;;;;5072585;28;20078;-72
2022/03/22 01:07:00;;;;;;;21.50;11.35;;;3.40;29.50;;;;;;5088659;28;20032;-77
2022/03/22 01:09:27;;;;;;;19.52;9.68;;;3.30;29.70;;;;;;5089521;28;20046;-77
2022/03/22 01:11:57;;;;;;;22.90;10.90;;;3.30;30.00;;;;;;5089929;28;20433;-74
2022/03/22 01:14:43;;;;;;;24.85;11.15;;;3.30;30.00;;;;;;5104937;28;20157;-77
2022/03/22 01:17:09;;;;;;;26.33;12.30;;;3.30;30.00;;;;;;5088707;28;20422;-77
2022/03/22 01:19:50;;;;;;;28.58;14.07;;;3.20;29.80;;;;;;5089427;28;20847;-77
2022/03/22 01:22:18;;;;;;;34.22;15.48;;;3.10;30.00;;;;;;5090363;28;20043;-78
2022/03/22 01:25:13;;;;;;;40.63;19.00;;;3.10;29.60;;;;;;5092532;28;20543;-72
2022/03/22 01:28:13;;;;;;;44.20;20.30;;;3.10;30.10;;;;;;5094331;28;20039;-77
2022/03/22 01:30:43;;;;;;;44.25;22.00;;;3.00;30.10;;;;;;5092342;28;20036;-72
2022/03/22 01:33:12;;;;;;;34.78;17.25;;;2.90;30.30;;;;;;5092634;28;20424;-72
2022/03/22 01:35:39;;;;;;;39.20;17.40;;;2.80;30.40;;;;;;5058757;28;20043;-77
2022/03/22 01:38:12;;;;;;;30.35;15.20;;;2.80;30.50;;;;;;5092172;28;20067;-72
2022/03/22 01:40:42;;;;;;;26.33;12.85;;;2.80;31.00;;;;;;5093992;28;20347;-78
2022/03/22 01:43:09;;;;;;;28.02;14.60;;;2.70;31.10;;;;;;5075911;28;20047;-78
2022/03/22 01:46:27;;;;;;;31.40;15.88;;;2.60;31.60;;;;;;5074639;28;20036;-72
2022/03/22 01:49:10;;;;;;;27.90;13.25;;;2.60;32.00;;;;;;5093568;28;20055;-72
2022/03/22 01:52:05;;;;;;;28.92;14.63;;;2.40;31.70;;;;;;5091880;28;20561;-78
2022/03/22 01:55:01;;;;;;;32.40;15.70;;;2.40;31.70;;;;;;5091911;28;20043;-72
2022/03/22 01:57:37;;;;;;;34.42;16.48;;;2.40;31.60;;;;;;5093208;28;20040;-78
2022/03/22 02:00:22;;;;;;;39.97;17.75;;;2.40;31.60;;;;;;5092050;28;20078;-78
2022/03/22 02:08:41;;;;;;;28.80;11.95;;;2.30;32.00;;;;;;5092300;28;20085;-78
2022/03/22 02:11:07;;;;;;;25.30;11.65;;;2.30;32.30;;;;;;5092647;28;20039;-72
2022/03/22 02:13:59;;;;;;;;;;;2.20;32.40;;;;;;5093313;28;20085;-72
2022/03/22 02:16:35;;;;;;;25.13;11.40;;;2.20;32.20;;;;;;5090232;28;19995;-80
2022/03/22 02:19:19;;;;;;;18.15;8.68;;;2.10;32.50;;;;;;5092981;28;20039;-72
2022/03/22 02:22:11;;;;;;;20.30;9.27;;;2.10;32.80;;;;;;5091276;28;20036;-72
2022/03/22 02:25:02;;;;;;;22.48;9.85;;;2.00;33.40;;;;;;5091730;28;20044;-78
2022/03/22 02:27:30;;;;;;;19.23;9.50;;;2.00;33.40;;;;;;5092790;28;20040;-80
2022/03/22 02:30:01;;;;;;;20.08;9.85;;;2.00;33.60;;;;;;5091373;28;20039;-78
2022/03/22 02:32:55;;;;;;;25.15;12.40;;;2.00;33.80;;;;;;5091336;28;20408;-77
2022/03/22 02:35:23;;;;;;;21.73;11.30;;;1.90;34.10;;;;;;5090564;28;20404;-80
2022/03/22 02:38:11;;;;;;;20.55;9.73;;;1.90;33.80;;;;;;5089995;28;20135;-80
2022/03/22 02:40:39;;;;;;;21.80;9.88;;;1.80;34.00;;;;;;5059770;28;20028;-78
2022/03/22 02:43:05;;;;;;;19.83;8.85;;;1.80;34.00;;;;;;5091587;28;20450;-72
2022/03/22 02:45:32;;;;;;;18.05;8.95;;;1.80;34.20;;;;;;5090502;28;20040;-72
2022/03/22 02:48:11;;;;;;;;;;;1.70;34.30;;;;;;5074926;28;20062;-72
2022/03/22 02:50:56;;;;;;;20.67;8.55;;;1.70;33.80;;;;;;5090825;28;20274;-78
2022/03/22 02:53:40;;;;;;;17.15;8.73;;;1.70;34.30;;;;;;5091514;28;20067;-74
2022/03/22 02:56:07;;;;;;;18.33;8.27;;;1.70;34.40;;;;;;5090484;28;20036;-78
2022/03/22 02:58:38;;;;;;;21.52;9.63;;;1.60;34.70;;;;;;5091848;28;20119;-72
2022/03/22 03:01:34;;;;;;;20.58;9.63;;;1.60;34.80;;;;;;5074239;28;20043;-73
2022/03/22 03:04:24;;;;;;;15.57;8.93;;;1.60;35.00;;;;;;5091184;28;20043;-72
2022/03/22 03:07:08;;;;;;;19.75;8.93;;;1.50;34.90;;;;;;5091786;28;20428;-78
2022/03/22 03:09:59;;;;;;;14.82;7.68;;;1.50;35.10;;;;;;5084883;28;20040;-78
2022/03/22 03:13:17;;;;;;;17.25;7.03;;;1.50;35.10;;;;;;5091994;28;20501;-72
2022/03/22 03:16:06;;;;;;;18.15;8.63;;;1.50;35.10;;;;;;5050746;28;20069;-72
2022/03/22 03:18:34;;;;;;;19.50;8.45;;;1.40;35.10;;;;;;5066730;28;20044;-73
2022/03/22 03:21:21;;;;;;;19.63;8.13;;;1.30;35.10;;;;;;5033381;28;20037;-73
2022/03/22 03:23:47;;;;;;;13.07;7.15;;;1.40;35.40;;;;;;5051284;28;20045;-72
2022/03/22 03:26:13;;;;;;;16.30;7.30;;;1.30;35.40;;;;;;5051235;28;20037;-72
2022/03/22 03:28:41;;;;;;;18.67;8.00;;;1.30;36.20;;;;;;5052686;28;20108;-78
2022/03/22 03:31:14;;;;;;;16.77;7.93;;;1.30;35.60;;;;;;5032943;28;20033;-79
2022/03/22 03:33:51;;;;;;;16.23;7.55;;;1.20;35.80;;;;;;5067213;28;20076;-72
2022/03/22 03:36:36;;;;;;;14.27;7.32;;;1.20;35.90;;;;;;5049099;28;20033;-79
2022/03/22 03:39:22;;;;;;;15.98;7.70;;;1.20;35.80;;;;;;5049796;28;20174;-74
2022/03/22 03:41:57;;;;;;;17.00;7.68;;;1.20;35.70;;;;;;5049240;28;20268;-72
2022/03/22 03:47:28;;;;;;;17.50;8.43;;;1.20;35.80;;;;;;5049848;28;20047;-78
2022/03/22 03:50:33;;;;;;;15.00;7.35;;;1.10;35.70;;;;;;5049985;28;20029;-78
2022/03/22 03:53:30;;;;;;;16.27;7.63;;;1.10;36.10;;;;;;5051256;28;20057;-78
2022/03/22 03:55:59;;;;;;;14.88;6.88;;;1.10;36.10;;;;;;5050696;28;20100;-72
2022/03/22 03:58:26;;;;;;;13.85;6.85;;;1.10;35.90;;;;;;5051476;28;20132;-78
2022/03/22 04:01:17;;;;;;;15.48;7.03;;;1.10;36.10;;;;;;5049655;28;20116;-72
2022/03/22 04:03:51;;;;;;;14.25;7.70;;;1.10;36.50;;;;;;5049534;28;20033;-80
2022/03/22 04:06:17;;;;;;;17.77;8.40;;;0.90;36.50;;;;;;5050163;28;20033;-78
2022/03/22 04:09:09;;;;;;;17.00;8.93;;;0.90;37.10;;;;;;5043206;28;20537;-78
2022/03/22 04:11:35;;;;;;;21.17;9.32;;;0.80;36.90;;;;;;5048285;28;20456;-77
2022/03/22 04:14:02;;;;;;;21.63;9.40;;;0.80;36.80;;;;;;5067131;28;20054;-78
2022/03/22 04:16:31;;;;;;;21.92;10.55;;;0.70;37.00;;;;;;5106759;28;20401;-72
2022/03/22 04:18:57;;;;;;;28.15;11.25;;;0.60;37.20;;;;;;5090694;28;20097;-72
2022/03/22 04:21:23;;;;;;;21.38;10.65;;;0.50;37.40;;;;;;5089066;28;20123;-78
2022/03/22 04:23:49;;;;;;;22.23;10.15;;;0.50;37.40;;;;;;5089439;28;20044;-78
2022/03/22 04:26:28;;;;;;;19.50;9.90;;;0.40;37.40;;;;;;5090088;28;20036;-76
2022/03/22 04:34:52;;;;;;;21.95;11.18;;;0.40;36.90;;;;;;5090407;28;20034;-74
2022/03/22 04:37:18;;;;;;;17.60;8.05;;;0.50;37.30;;;;;;5088668;28;20051;-74
2022/03/22 04:39:54;;;;;;;17.58;8.98;;;0.30;37.40;;;;;;5090281;28;20036;-81
2022/03/22 04:42:41;;;;;;;20.77;9.55;;;0.30;37.50;;;;;;5071938;28;20036;-79
2022/03/22 04:45:31;;;;;;;17.17;8.63;;;0.20;37.70;;;;;;5088865;28;20043;-72
2022/03/22 04:47:59;;;;;;;23.33;10.73;;;0.10;37.90;;;;;;5089551;28;20078;-74
2022/03/22 04:50:34;;;;;;;16.83;8.95;;;0.00;37.90;;;;;;5089150;28;20033;-72
2022/03/22 04:58:56;;;;;;;23.60;11.30;;;-0.20;38.20;;;;;;5093206;28;20082;-74
2022/03/22 05:01:22;;;;;;;23.70;11.95;;;-0.20;38.10;;;;;;5093585;28;20422;-74
2022/03/22 05:04:01;;;;;;;27.77;13.18;;;-0.20;38.00;;;;;;5094625;28;20130;-73
2022/03/22 05:06:28;;;;;;;25.85;11.57;;;-0.20;38.00;;;;;;5093046;28;20047;-80
2022/03/22 05:09:14;;;;;;;24.00;11.65;;;-0.30;38.30;;;;;;5093214;28;20040;-72
2022/03/22 05:11:46;;;;;;;27.80;12.50;;;-0.40;38.30;;;;;;5093997;28;20063;-78
2022/03/22 05:14:22;;;;;;;27.60;12.82;;;-0.40;38.20;;;;;;5076586;28;20489;-72
2022/03/22 05:16:58;;;;;;;27.52;12.18;;;-0.30;38.40;;;;;;5092748;28;20131;-78
2022/03/22 05:19:45;;;;;;;25.83;12.30;;;-0.30;38.50;;;;;;5093644;28;20046;-77
2022/03/22 05:22:13;;;;;;;;;;;-0.30;38.40;;;;;;5094672;28;20043;-80
2022/03/22 05:24:40;;;;;;;27.17;12.13;;;-0.30;37.80;;;;;;5093100;28;19926;-78
2022/03/22 05:27:06;;;;;;;21.83;10.63;;;-0.40;37.90;;;;;;5075616;28;20496;-72
2022/03/22 05:29:53;;;;;;;26.85;11.32;;;-0.30;38.00;;;;;;5109627;28;20036;-78
2022/03/22 05:32:19;;;;;;;25.23;11.65;;;-0.40;38.30;;;;;;5093602;28;20035;-80
2022/03/22 05:34:45;;;;;;;23.13;11.63;;;-0.30;38.20;;;;;;5092870;28;20032;-74
2022/03/22 05:37:13;;;;;;;26.02;12.25;;;-0.20;38.10;;;;;;5092702;28;20062;-80
2022/03/22 05:40:00;;;;;;;25.80;12.57;;;-0.20;38.00;;;;;;5089341;28;20036;-74
2022/03/22 05:42:30;;;;;;;26.30;12.80;;;-0.10;38.10;;;;;;5059940;28;20036;-72
2022/03/22 05:45:31;;;;;;;32.70;14.15;;;0.00;37.90;;;;;;5075729;28;20036;-72
2022/03/22 05:48:09;;;;;;;35.30;14.73;;;0.00;38.00;;;;;;5093889;28;20040;-80
2022/03/22 05:50:44;;;;;;;32.88;15.52;;;0.10;37.90;;;;;;5091501;28;20063;-74
2022/03/22 05:53:31;;;;;;;54.67;16.42;;;0.20;37.90;;;;;;5074499;28;20036;-72
2022/03/22 05:56:05;;;;;;;29.80;15.93;;;0.30;38.90;;;;;;5091751;28;20028;-72
2022/03/22 05:58:43;;;;;;;33.47;16.17;;;0.30;38.00;;;;;;5075948;28;20036;-77
2022/03/22 06:01:09;;;;;;;32.00;15.70;;;0.40;38.20;;;;;;5092885;28;20040;-78
2022/03/22 06:03:36;;;;;;;28.77;15.57;;;0.40;38.20;;;;;;5092131;28;20040;-72
2022/03/22 06:06:02;;;;;;;30.23;15.18;;;0.50;38.40;;;;;;5091208;28;20032;-71
2022/03/22 06:09:11;;;;;;;33.67;16.77;;;0.60;38.40;;;;;;5091540;28;20370;-72
2022/03/22 06:11:38;;;;;;;43.03;21.38;;;0.70;38.50;;;;;;5091634;28;20040;-80
2022/03/22 06:14:07;;;;;;;76.72;34.92;;;0.80;38.10;;;;;;5091820;28;20048;-72
2022/03/22 06:16:42;;;;;;;95.05;39.55;;;0.80;38.00;;;;;;5091895;28;20024;-72
2022/03/22 06:19:10;;;;;;;62.92;30.35;;;0.90;38.30;;;;;;5091644;28;20046;-78
2022/03/22 06:21:47;;;;;;;59.83;28.35;;;1.00;38.30;;;;;;5074660;28;20052;-74
2022/03/22 06:24:15;;;;;;;49.50;26.65;;;1.10;38.50;;;;;;5092006;28;20424;-78
2022/03/22 06:26:45;;;;;;;59.40;29.08;;;1.20;38.40;;;;;;5091103;28;20048;-78
2022/03/22 06:29:18;;;;;;;64.80;27.73;;;1.30;38.50;;;;;;5091839;28;20034;-76
2022/03/22 06:31:45;;;;;;;61.22;30.17;;;1.40;38.40;;;;;;5092554;28;20059;-78
2022/03/22 06:34:29;;;;;;;57.90;31.83;;;1.50;38.50;;;;;;5091859;28;20040;-71
2022/03/22 06:37:12;;;;;;;50.45;25.95;;;1.60;38.30;;;;;;5073507;28;20043;-72
2022/03/22 06:39:38;;;;;;;49.47;25.20;;;1.70;38.20;;;;;;5092222;28;20040;-78
2022/03/22 06:42:08;;;;;;;50.58;27.20;;;1.80;37.90;;;;;;5091015;28;20339;-76
2022/03/22 06:44:40;;;;;;;66.90;29.30;;;1.90;37.40;;;;;;5092411;28;20570;-78
2022/03/22 06:47:48;;;;;;;53.15;28.35;;;2.00;37.90;;;;;;5074287;28;20051;-79
2022/03/22 06:50:17;;;;;;;59.08;27.13;;;2.20;38.60;;;;;;5090882;28;20039;-74
2022/03/22 06:53:12;;;;;;;56.20;27.63;;;2.30;37.40;;;;;;5093233;28;20472;-78
2022/03/22 06:55:41;;;;;;;48.53;23.13;;;2.40;37.30;;;;;;5090871;28;20111;-74
2022/03/22 06:58:24;;;;;;;48.40;23.38;;;2.60;37.10;;;;;;5074116;28;20040;-77
2022/03/22 07:00:59;;;;;;;44.17;23.10;;;2.80;36.90;;;;;;5057524;28;20028;-78
2022/03/22 07:03:26;;;;;;;45.88;23.70;;;2.90;36.70;;;;;;5090347;28;20048;-80
2022/03/22 07:06:10;;;;;;;44.83;22.90;;;3.10;36.70;;;;;;5090557;28;20081;-74
2022/03/22 07:08:48;;;;;;;37.95;19.13;;;3.20;36.50;;;;;;5085170;28;20512;-72
2022/03/22 07:14:00;;;;;;;41.58;22.10;;;3.50;36.10;;;;;;5070203;28;20441;-73
2022/03/22 07:16:30;;;;;;;36.28;18.27;;;3.70;36.00;;;;;;5069676;28;20056;-78
2022/03/22 07:19:01;;;;;;;31.55;18.02;;;3.80;35.90;;;;;;5069718;28;20454;-72
2022/03/22 07:21:29;;;;;;;33.78;17.73;;;3.90;35.70;;;;;;5070748;28;20037;-77
2022/03/22 07:26:52;;;;;;;30.23;15.95;;;4.20;35.20;;;;;;5078294;28;20185;-72
2022/03/22 07:29:18;;;;;;;25.10;13.55;;;4.40;35.00;;;;;;5091312;28;20115;-72
2022/03/22 07:31:48;;;;;;;25.60;14.25;;;4.50;34.60;;;;;;5090467;28;20404;-74
2022/03/22 07:34:20;;;;;;;26.42;13.40;;;4.70;34.60;;;;;;5091643;28;20063;-77
2022/03/22 07:36:55;;;;;;;29.65;13.85;;;4.90;34.60;;;;;;5090851;28;20392;-72
2022/03/22 07:39:48;;;;;;;23.02;13.63;;;5.00;34.50;;;;;;5090206;28;20043;-77
2022/03/22 07:42:38;;;;;;;31.45;15.15;;;5.30;34.20;;;;;;5089978;28;20059;-71
2022/03/22 07:45:37;;;;;;;29.58;16.00;;;5.60;33.90;;;;;;5089894;28;20415;-73
2022/03/22 07:48:14;;;;;;;23.55;12.50;;;6.10;33.80;;;;;;5089836;28;20127;-77
2022/03/22 07:53:25;;;;;;;24.98;13.25;;;8.30;32.00;;;;;;5091372;28;20038;-80
2022/03/22 07:56:00;;;;;;;22.52;11.68;;;9.30;31.10;;;;;;5089552;28;20056;-73
2022/03/22 07:58:29;;;;;;;24.17;13.13;;;10.30;30.60;;;;;;5090719;28;20036;-78
2022/03/22 08:00:56;;;;;;;25.13;12.88;;;11.20;30.40;;;;;;5089536;28;20492;-73
2022/03/22 08:03:26;;;;;;;;;;;12.20;29.90;;;;;;5091450;28;20043;-78
2022/03/22 08:06:07;;;;;;;21.60;12.23;;;13.00;30.70;;;;;;5089547;28;20300;-79
2022/03/22 08:08:44;;;;;;;22.17;12.70;;;13.80;28.10;;;;;;5086276;28;20039;-78
2022/03/22 08:11:11;;;;;;;22.92;13.73;;;14.70;27.00;;;;;;5067113;28;20029;-72
2022/03/22 08:13:38;;;;;;;22.10;13.07;;;15.60;26.60;;;;;;5086668;28;20033;-73
2022/03/22 08:16:29;;;;;;;25.27;14.90;;;16.60;25.60;;;;;;5085901;28;20033;-74
2022/03/22 08:19:00;;;;;;;27.83;14.25;;;17.30;24.80;;;;;;5086109;28;20044;-79
2022/03/22 08:21:38;;;;;;;21.63;13.18;;;18.10;23.80;;;;;;5052997;28;20096;-79
2022/03/22 08:24:06;;;;;;;27.05;15.50;;;19.00;22.20;;;;;;5069830;28;20068;-79
2022/03/22 08:26:40;;;;;;;26.83;15.23;;;19.90;22.00;;;;;;5084057;28;20490;-79
2022/03/22 08:29:08;;;;;;;22.73;12.68;;;20.60;21.00;;;;;;5070442;28;20115;-79
2022/03/22 08:31:49;;;;;;;21.17;12.75;;;21.40;19.80;;;;;;5052345;28;20031;-73
2022/03/22 08:34:20;;;;;;;24.38;14.30;;;22.10;18.80;;;;;;5086106;28;20033;-73
2022/03/22 08:37:32;;;;;;;23.27;12.07;;;22.90;18.30;;;;;;5068914;28;20036;-73
2022/03/22 08:40:05;;;;;;;17.83;10.25;;;23.70;17.90;;;;;;5037452;28;20123;-79
2022/03/22 08:45:24;;;;;;;24.02;10.75;;;24.90;15.30;;;;;;5068630;28;20047;-74
2022/03/22 08:47:53;;;;;;;14.90;8.82;;;25.30;13.90;;;;;;5050948;28;20598;-79
2022/03/22 08:50:26;;;;;;;12.73;8.05;;;25.50;13.30;;;;;;5068427;28;20036;-74
2022/03/22 08:52:56;;;;;;;13.65;9.38;;;25.80;12.50;;;;;;5068627;28;20028;-73
2022/03/22 08:55:48;;;;;;;13.95;9.25;;;26.20;12.50;;;;;;5085248;28;20149;-79
2022/03/22 08:58:23;;;;;;;14.45;8.75;;;26.70;12.40;;;;;;5052995;28;20531;-72
2022/03/22 09:00:54;;;;;;;19.50;10.55;;;27.20;11.40;;;;;;5054111;28;20056;-74
2022/03/22 09:03:31;;;;;;;13.18;8.90;;;27.80;11.00;;;;;;5089936;28;20415;-73
2022/03/22 09:09:02;;;;;;;16.15;9.23;;;28.70;9.90;;;;;;5089889;28;20555;-80
2022/03/22 09:11:36;;;;;;;;;;;29.20;9.60;;;;;;5088686;28;20044;-80
2022/03/22 09:14:06;;;;;;;14.55;9.15;;;29.40;10.90;;;;;;5089638;28;20381;-81
2022/03/22 09:17:07;;;;;;;23.70;13.80;;;30.00;9.10;;;;;;5088556;28;20036;-75
2022/03/22 09:20:03;;;;;;;17.88;10.85;;;30.50;8.40;;;;;;5090393;28;20074;-81
2022/03/22 09:22:30;;;;;;;14.10;8.80;;;31.00;8.40;;;;;;5007785;28;20074;-80
2022/03/22 09:25:41;;;;;;;15.38;9.35;;;31.40;7.90;;;;;;5007959;28;20042;-82
2022/03/22 09:28:13;;;;;;;18.67;10.73;;;31.90;7.40;;;;;;4968464;28;20123;-78
2022/03/22 09:30:48;;;;;;;19.13;11.95;;;32.50;7.00;;;;;;4967748;28;20492;-81
2022/03/22 09:34:02;;;;;;;12.50;9.15;;;33.10;7.00;;;;;;4967827;28;20126;-75
2022/03/22 09:36:31;;;;;;;15.35;10.35;;;33.50;7.20;;;;;;4968029;28;20436;-81
2022/03/22 09:38:58;;;;;;;16.65;9.32;;;33.80;6.20;;;;;;4952242;28;20480;-81
2022/03/22 09:41:26;;;;;;;14.45;9.70;;;34.40;6.00;;;;;;4952345;28;20433;-82
2022/03/22 09:44:16;;;;;;;15.40;9.65;;;34.50;5.40;;;;;;4954870;28;20444;-81
2022/03/22 09:47:03;;;;;;;15.20;9.07;;;34.90;5.60;;;;;;4956525;28;20535;-76
2022/03/22 09:49:30;;;;;;;15.82;10.25;;;35.20;5.40;;;;;;4961994;28;20041;-75
2022/03/22 09:51:58;;;;;;;16.92;10.30;;;36.10;5.40;;;;;;5013321;28;20096;-76
2022/03/22 09:54:28;;;;;;;22.33;14.80;;;36.70;4.80;;;;;;5014237;28;20061;-75
2022/03/22 09:57:04;;;;;;;16.48;10.45;;;36.70;4.70;;;;;;5013331;28;20069;-75
2022/03/22 09:59:37;;;;;;;14.85;10.25;;;37.10;4.70;;;;;;5067223;28;20502;-77
2022/03/22 10:02:20;;;;;;;16.10;10.27;;;37.30;4.40;;;;;;5090898;28;20464;-75
2022/03/22 10:04:56;;;;;;;15.23;9.43;;;37.80;4.30;;;;;;5093374;28;20044;-81
2022/03/22 10:07:27;;;;;;;18.13;10.50;;;38.10;3.90;;;;;;5074861;28;20076;-80
2022/03/22 10:10:24;;;;;;;14.10;10.30;;;38.20;4.30;;;;;;5075538;28;20476;-75
2022/03/22 10:13:14;;;;;;;15.23;11.15;;;38.40;4.20;;;;;;5092726;28;20094;-80
2022/03/22 10:16:13;;;;;;;15.35;10.43;;;39.10;4.30;;;;;;5090554;28;20059;-79
2022/03/22 10:18:45;;;;;;;17.35;11.07;;;39.30;3.90;;;;;;5093161;28;20055;-75
2022/03/22 10:21:28;;;;;;;14.48;10.68;;;39.90;3.80;;;;;;5091487;28;20032;-80
2022/03/22 10:24:09;;;;;;;14.10;10.23;;;40.10;3.90;;;;;;5091466;28;20062;-75
2022/03/22 10:26:51;;;;;;;15.32;10.27;;;40.00;3.20;;;;;;5084235;28;20045;-80
2022/03/22 10:29:23;;;;;;;11.00;8.73;;;40.10;3.70;;;;;;5087507;28;20036;-80
2022/03/22 10:32:05;;;;;;;16.63;9.85;;;40.70;3.30;;;;;;5070498;28;20048;-81
2022/03/22 10:34:50;;;;;;;14.20;10.40;;;41.20;3.30;;;;;;5071702;28;20174;-75
2022/03/22 10:37:26;;;;;;;12.70;8.95;;;41.60;3.00;;;;;;5054015;28;20037;-75
2022/03/22 10:40:04;;;;;;;12.02;8.88;;;41.30;3.10;;;;;;5070933;28;20036;-81
2022/03/22 10:42:41;;;;;;;14.25;10.30;;;41.50;2.90;;;;;;5054067;28;20130;-81
2022/03/22 10:45:59;;;;;;;11.52;8.57;;;42.10;3.00;;;;;;5071952;28;20443;-81
2022/03/22 10:48:34;;;;;;;14.10;10.27;;;42.60;2.90;;;;;;5087271;28;20515;-81
2022/03/22 10:51:02;;;;;;;23.17;15.88;;;43.00;2.90;;;;;;5070151;28;20370;-76
2022/03/22 10:53:35;;;;;;;12.13;9.55;;;43.30;2.50;;;;;;5054928;28;20036;-74
2022/03/22 10:56:04;;;;;;;16.10;10.18;;;43.70;2.40;;;;;;5069303;28;20377;-80
2022/03/22 10:58:35;;;;;;;12.50;9.35;;;43.90;2.00;;;;;;5087674;28;20028;-75
2022/03/22 11:01:06;;;;;;;16.17;9.30;;;43.80;2.20;;;;;;5071633;28;20135;-75
2022/03/22 11:03:43;;;;;;;11.98;9.07;;;44.00;2.40;;;;;;5070574;28;20060;-80
2022/03/22 11:06:49;;;;;;;11.77;8.35;;;44.10;2.20;;;;;;5071097;28;20044;-80
2022/03/22 11:09:34;;;;;;;11.88;8.82;;;44.40;2.40;;;;;;5071430;28;20041;-74
2022/03/22 11:12:10;;;;;;;14.80;10.23;;;44.30;2.30;;;;;;5080912;28;20035;-74
2022/03/22 11:15:05;;;;;;;18.60;11.00;;;44.50;1.90;;;;;;5073113;28;20048;-80
2022/03/22 11:17:49;;;;;;;12.65;9.52;;;44.90;1.80;;;;;;5073334;28;21149;-76
2022/03/22 11:20:22;;;;;;;14.43;10.98;;;45.10;2.20;;;;;;5072681;28;20032;-80
2022/03/22 11:23:25;;;;;;;12.13;9.18;;;45.70;1.80;;;;;;5072983;28;20493;-80
2022/03/22 11:26:27;;;;;;;13.13;8.48;;;45.80;1.70;;;;;;5090382;28;20557;-80
2022/03/22 11:28:54;;;;;;;10.65;8.68;;;45.70;1.50;;;;;;5069710;28;20033;-80
2022/03/22 11:34:08;;;;;;;11.60;8.82;;;46.60;1.60;;;;;;5069504;28;20033;-80
2022/03/22 11:34:33;;;;;;;11.70;9.25;;;46.70;1.60;;;;;;5070119;28;20413;-80
2022/03/22 11:37:10;;;;;;;18.30;12.38;;;46.80;1.40;;;;;;5069338;28;20451;-74
2022/03/22 11:42:43;;;;;;;13.35;8.60;;;46.90;1.50;;;;;;5070407;28;20499;-80
2022/03/22 11:45:24;;;;;;;8.63;7.13;;;47.40;1.40;;;;;;5085751;28;20043;-80
2022/03/22 11:48:22;;;;;;;10.27;6.97;;;47.80;1.20;;;;;;5069012;28;20098;-80
2022/03/22 11:51:10;;;;;;;10.35;7.97;;;47.60;1.00;;;;;;5085501;28;20036;-77
2022/03/22 11:53:59;;;;;;;10.90;8.63;;;47.60;1.00;;;;;;5089623;28;20062;-74
2022/03/22 11:57:02;;;;;;;10.13;8.02;;;47.70;1.00;;;;;;5089322;28;20051;-80
2022/03/22 11:59:52;;;;;;;13.30;10.40;;;47.40;1.30;;;;;;5089792;28;20036;-75
2022/03/22 12:02:39;;;;;;;12.32;8.80;;;46.90;1.00;;;;;;5071994;28;20067;-74
2022/03/22 12:05:09;;;;;;;10.85;8.63;;;47.30;1.30;;;;;;5088745;28;20574;-75
2022/03/22 12:07:52;;;;;;;10.88;8.45;;;47.70;1.00;;;;;;5086485;28;20503;-80
2022/03/22 12:10:42;;;;;;;12.45;8.65;;;48.00;1.00;;;;;;5090085;28;20078;-80
2022/03/22 12:13:34;;;;;;;9.30;7.43;;;48.00;1.20;;;;;;5089989;28;20055;-80
2022/03/22 12:16:16;;;;;;;15.57;12.88;;;48.50;1.00;;;;;;5090208;28;20052;-80
2022/03/22 12:18:46;;;;;;;15.75;11.55;;;48.50;1.00;;;;;;5090372;28;20456;-79
2022/03/22 12:21:31;;;;;;;20.92;15.18;;;48.60;1.00;;;;;;5087809;28;20028;-75
2022/03/22 12:23:57;;;;;;;13.20;10.25;;;48.50;1.00;;;;;;5034087;28;20086;-74
2022/03/22 12:26:30;;;;;;;12.38;8.80;;;49.10;1.00;;;;;;5049865;28;20132;-80
2022/03/22 12:29:03;;;;;;;14.93;11.20;;;48.70;1.00;;;;;;5050738;28;20199;-80
2022/03/22 12:31:29;;;;;;;11.23;7.68;;;48.70;1.00;;;;;;5035156;28;20056;-79
2022/03/22 12:34:17;;;;;;;13.02;9.35;;;48.80;1.00;;;;;;5067480;28;20074;-75
2022/03/22 12:36:46;;;;;;;11.30;8.57;;;49.00;1.10;;;;;;5050151;28;20401;-79
2022/03/22 12:39:15;;;;;;;9.23;7.80;;;48.80;1.00;;;;;;5050644;28;20032;-80
2022/03/22 12:41:48;;;;;;;9.85;7.63;;;48.90;1.00;;;;;;5032685;28;20037;-80
2022/03/22 12:44:31;;;;;;;21.23;14.88;;;49.30;1.00;;;;;;5051090;28;20048;-75
2022/03/22 12:47:16;;;;;;;11.95;9.00;;;49.00;1.00;;;;;;5066885;28;20395;-80
2022/03/22 12:49:50;;;;;;;;;;;48.90;1.00;;;;;;5053795;28;20441;-75
2022/03/22 12:52:47;;;;;;;12.00;8.25;;;49.80;1.00;;;;;;5051046;28;20297;-80
2022/03/22 12:55:16;;;;;;;11.15;8.50;;;49.90;1.00;;;;;;5067042;28;20055;-79
2022/03/22 12:57:46;;;;;;;10.13;8.02;;;49.90;1.00;;;;;;5050504;28;20425;-75
2022/03/22 13:00:48;;;;;;;11.70;9.68;;;49.60;1.00;;;;;;5066678;28;20452;-80
2022/03/22 13:03:36;;;;;;;12.52;9.35;;;49.10;1.00;;;;;;5088323;28;20051;-75
2022/03/22 13:06:10;;;;;;;12.23;9.68;;;48.50;1.00;;;;;;5068191;28;20052;-75
2022/03/22 13:11:30;;;;;;;11.25;9.50;;;49.40;1.00;;;;;;5088171;28;20036;-80
2022/03/22 13:17:17;;;;;;;14.00;9.75;;;50.10;1.00;;;;;;5047143;28;20413;-78
2022/03/22 13:23:14;;;;;;;13.13;9.38;;;49.80;1.00;;;;;;5053680;28;20064;-75
2022/03/22 13:25:51;;;;;;;12.80;9.68;;;49.30;1.00;;;;;;5052180;28;20036;-80
2022/03/22 13:28:17;;;;;;;15.05;8.77;;;49.10;1.00;;;;;;5054214;28;20052;-80
2022/03/22 13:31:09;;;;;;;15.60;10.10;;;49.40;1.00;;;;;;5035079;28;20394;-75
2022/03/22 13:33:41;;;;;;;30.77;10.35;;;48.80;1.00;;;;;;5051625;28;20045;-75
2022/03/22 13:36:15;;;;;;;12.90;9.07;;;48.80;1.00;;;;;;5034439;28;20029;-79
2022/03/22 13:38:50;;;;;;;10.38;8.63;;;48.70;1.00;;;;;;5035167;28;20045;-75
2022/03/22 13:41:41;;;;;;;13.63;10.48;;;48.70;1.00;;;;;;5052420;28;20045;-79
2022/03/22 13:44:28;;;;;;;14.57;10.27;;;48.80;1.10;;;;;;5052640;28;20402;-80
2022/03/22 13:47:17;;;;;;;11.95;9.00;;;48.10;1.30;;;;;;5052354;28;20056;-75
2022/03/22 13:50:07;;;;;;;12.60;8.98;;;47.60;1.00;;;;;;5051999;28;20033;-75
2022/03/22 13:53:18;;;;;;;11.85;8.77;;;47.60;1.00;;;;;;5067643;28;20454;-75
2022/03/22 13:56:25;;;;;;;9.73;7.72;;;47.90;1.00;;;;;;5052394;28;20041;-80
2022/03/22 13:59:11;;;;;;;11.45;7.38;;;47.80;1.00;;;;;;5051186;28;20036;-80
2022/03/22 14:01:40;;;;;;;8.95;7.40;;;47.60;1.00;;;;;;5051355;28;20450;-78
2022/03/22 14:04:06;;;;;;;9.88;7.53;;;47.50;1.20;;;;;;5051872;28;20072;-75
2022/03/22 14:06:55;;;;;;;12.70;8.43;;;47.30;1.10;;;;;;5050939;28;20029;-79
2022/03/22 14:09:26;;;;;;;10.18;7.75;;;47.00;1.20;;;;;;5047568;28;20041;-80
2022/03/22 14:12:13;;;;;;;9.02;7.80;;;46.40;1.00;;;;;;5032177;28;20049;-80
2022/03/22 14:15:02;;;;;;;12.98;8.98;;;46.10;1.20;;;;;;5033943;28;20119;-76
2022/03/22 14:17:31;;;;;;;11.88;9.70;;;46.40;1.10;;;;;;5053262;28;20158;-80
2022/03/22 14:20:08;;;;;;;17.35;10.15;;;46.40;1.00;;;;;;5037450;28;20039;-80
2022/03/22 14:22:34;;;;;;;12.18;9.75;;;46.60;1.00;;;;;;5058961;28;20032;-79
2022/03/22 14:25:00;;;;;;;15.30;9.27;;;46.70;1.00;;;;;;5092408;28;20035;-80
2022/03/22 14:27:34;;;;;;;14.13;9.65;;;46.40;1.00;;;;;;5091842;28;20032;-74
2022/03/22 14:30:04;;;;;;;12.40;8.73;;;46.10;1.10;;;;;;5091182;28;20461;-74